Latest Weather Observations for Ngukurr AWS

IDD60801

Issued at 11:31 pm CST Tuesday 31 May 2016 (issued every 30 minutes, with the page automatically refreshed every 10 minutes)

About weather observations | Map of weather stations | Latest weather observations for NT | Other Formats
Station Details ID: 014299 Name: NGUKURR AIRPORT Lat: -14.72 Lon: 134.75 Height: 14.46 m
Data from the previous 72 hours. | See also: Recent months at Ngukurr AWS
Date/Time
CST
Temp
°C
App
Temp
°C
Dew
Point
Rel
Hum
%
Delta-T
°C
Wind Press
QNH
hPa
Press
MSL
hPa
Rain
since 9 am
mm
Dir
 
Spd
km/h
Gust
km/h
Spd
kts
Gust
kts
31/11:30pm 24.7 28.9 22.4 87 1.5 S 4 6 2 3 1015.4 1015.3 0.0
31/11:00pm 25.2 29.1 22.5 85 1.8 SSE 6 6 3 3 1015.4 1015.3 0.0
31/10:30pm 25.7 29.4 22.2 81 2.3 SSE 6 7 3 4 1015.4 1015.3 0.0
31/10:00pm 26.7 29.7 21.9 75 3.2 ESE 9 11 5 6 1015.2 1015.1 0.0
31/09:30pm 26.7 30.2 22.1 76 3.1 ESE 7 13 4 7 1015.1 1015.0 0.0
31/09:00pm 27.0 30.0 22.0 74 3.4 E 9 17 5 9 1014.7 1014.6 0.0
31/08:30pm 27.4 29.9 21.7 71 3.8 E 11 17 6 9 1014.6 1014.5 0.0
31/08:00pm 27.6 29.9 21.4 69 4.1 ENE 11 19 6 10 1014.2 1014.1 0.0
31/07:30pm 28.0 28.5 21.1 66 4.6 E 20 26 11 14 1013.9 1013.8 0.0
31/07:00pm 28.5 30.0 20.5 62 5.3 E 13 19 7 10 1013.8 1013.7 0.0
31/06:30pm 28.9 30.1 19.8 58 6.0 E 13 19 7 10 1013.4 1013.3 0.0
31/06:00pm 29.6 29.9 19.6 55 6.5 E 17 26 9 14 1013.1 1013.0 0.0
31/05:30pm 30.6 30.7 19.9 52 7.0 E 19 26 10 14 1012.9 1012.8 0.0
31/05:00pm 31.1 31.1 19.8 51 7.4 E 19 28 10 15 1012.4 1012.3 0.0
31/04:30pm 31.6 31.3 19.2 47 8.1 E 19 28 10 15 1012.2 1012.1 0.0
31/04:00pm 32.9 32.2 18.3 42 9.5 E 19 28 10 15 1012.1 1012.0 0.0
31/03:30pm 33.4 32.5 18.3 40 9.8 E 20 32 11 17 1012.2 1012.1 0.0
31/03:00pm 32.6 31.6 18.0 41 9.4 E 20 30 11 16 1012.1 1012.0 0.0
31/02:30pm 32.7 32.1 18.5 43 9.2 ESE 19 26 10 14 1012.2 1012.1 0.0
31/02:00pm 33.5 33.6 19.2 43 9.4 ESE 17 32 9 17 1012.4 1012.3 0.0
31/01:30pm 31.8 31.3 18.7 45 8.5 E 19 24 10 13 1013.1 1013.0 0.0
31/01:00pm 33.2 32.9 18.2 41 9.7 E 17 24 9 13 1013.5 1013.4 0.0
31/12:30pm 33.4 34.1 18.0 40 10.0 ESE 11 22 6 12 1014.1 1014.0 0.0
31/12:00pm 32.6 32.8 17.6 40 9.6 ENE 13 20 7 11 1014.5 1014.4 0.0
31/11:30am 32.7 32.5 18.5 43 9.2 ENE 17 26 9 14 1014.8 1014.7 0.0
31/11:00am 32.5 33.8 19.4 46 8.6 E 11 19 6 10 1015.3 1015.2 0.0
31/10:30am 31.0 31.3 18.7 48 8.0 E 15 22 8 12 1015.6 1015.5 0.0
31/10:00am 30.7 31.6 20.0 52 7.1 ENE 15 24 8 13 1015.7 1015.6 0.0
31/09:30am 29.3 32.2 21.8 64 5.0 ENE 9 19 5 10 1015.8 1015.7 0.0
31/09:00am 27.9 32.3 22.8 74 3.5 ESE 4 7 2 4 1015.8 1015.7 0.0
31/08:30am 26.5 30.9 23.4 83 2.1 ESE 6 7 3 4 1015.7 1015.6 0.0
31/08:00am 24.8 29.6 24.1 96 0.5 ESE 6 9 3 5 1015.5 1015.4 0.0
31/07:30am 23.3 28.6 23.1 99 0.1 CALM 0 0 0 0 1015.5 1015.4 0.0
31/07:00am 22.5 26.6 22.3 99 0.1 S 4 4 2 2 1015.2 1015.1 0.0
31/06:30am 22.2 26.2 22.0 99 0.1 S 4 4 2 2 1014.8 1014.7 0.0
31/06:00am 22.4 27.2 22.1 98 0.2 CALM 0 0 0 0 1014.4 1014.3 0.0
31/05:30am 22.8 27.9 22.6 99 0.1 CALM 0 0 0 0 1014.4 1014.3 0.0
31/05:00am 23.0 27.3 22.7 98 0.2 SE 4 4 2 2 1014.4 1014.3 0.0
31/04:30am 23.3 27.8 23.0 98 0.2 SE 4 4 2 2 1014.2 1014.1 0.0
31/04:00am 23.3 28.6 23.0 98 0.2 CALM 0 0 0 0 1014.3 1014.2 0.0
31/03:30am 23.3 28.6 23.0 98 0.2 CALM 0 0 0 0 1014.2 1014.1 0.0
31/03:00am 23.4 28.7 23.1 98 0.2 CALM 0 0 0 0 1014.3 1014.2 0.0
31/02:30am 23.4 28.3 23.1 98 0.2 S 2 2 1 1 1014.4 1014.3 0.0
31/02:00am 23.5 28.1 23.2 98 0.2 SSE 4 6 2 3 1014.5 1014.4 0.0
31/01:30am 23.9 28.9 23.2 96 0.5 SSE 2 2 1 1 1014.7 1014.6 0.0
31/01:00am 24.2 29.0 22.8 92 0.9 SE 2 4 1 2 1014.8 1014.7 0.0
31/12:30am 24.8 29.5 22.7 88 1.4 SE 2 4 1 2 1014.8 1014.7 0.0
31/12:00am 25.6 30.7 23.3 87 1.6 ESE 2 4 1 2 1014.9 1014.8 0.0
 
Date/Time
CST
Temp
°C
App
Temp
°C
Dew
Point
Rel
Hum
%
Delta-T
°C
Wind Press
QNH
hPa
Press
MSL
hPa
Rain
since 9 am
mm
Dir
 
Spd
km/h
Gust
km/h
Spd
kts
Gust
kts
30/11:30pm 25.3 29.7 22.8 86 1.7 SE 4 6 2 3 1015.2 1015.1 0.0
30/11:00pm 25.4 29.5 22.3 83 2.1 SE 4 6 2 3 1015.2 1015.1 0.0
30/10:30pm 26.1 30.4 22.6 81 2.4 ESE 4 6 2 3 1015.1 1015.0 0.0
30/10:00pm 26.8 30.7 22.6 78 2.8 E 6 7 3 4 1015.0 1014.9 0.0
30/09:30pm 27.1 31.0 22.5 76 3.1 E 6 7 3 4 1014.8 1014.7 0.0
30/09:00pm 27.4 30.5 22.1 73 3.6 E 9 13 5 7 1014.7 1014.6 0.0
30/08:30pm 27.6 30.9 21.9 71 3.8 ESE 7 11 4 6 1014.6 1014.5 0.0
30/08:00pm 27.8 30.6 21.6 69 4.1 E 9 15 5 8 1014.2 1014.1 0.0
30/07:30pm 28.1 29.3 21.4 67 4.5 E 17 24 9 13 1013.8 1013.7 0.0
30/07:00pm 28.6 29.2 21.1 64 5.0 E 19 30 10 16 1013.4 1013.3 0.0
30/06:30pm 29.0 28.6 20.2 59 5.8 E 22 37 12 20 1013.1 1013.0 0.0
30/06:00pm 29.6 29.4 19.3 54 6.7 E 19 26 10 14 1012.6 1012.5 0.0
30/05:30pm 30.7 30.6 20.0 52 7.1 E 20 28 11 15 1012.1 1012.0 0.0
30/05:00pm 31.3 30.8 19.9 50 7.5 E 22 32 12 17 1011.8 1011.7 0.0
30/04:30pm 32.2 31.4 20.1 48 8.0 E 24 33 13 18 1011.4 1011.3 0.0
30/04:00pm 32.1 31.5 19.7 48 8.2 E 22 35 12 19 1011.1 1011.0 0.0
30/03:30pm 33.2 32.2 18.9 42 9.4 E 22 32 12 17 1011.1 1011.0 0.0
30/03:00pm 32.9 33.2 18.7 43 9.3 E 15 26 8 14 1011.0 1010.9 0.0
30/02:30pm 33.5 32.7 19.2 43 9.4 E 22 33 12 18 1011.1 1011.0 0.0
30/02:00pm 34.0 33.4 18.9 41 9.9 E 20 30 11 16 1011.4 1011.3 0.0
30/01:30pm 33.6 33.0 18.5 40 9.8 E 19 28 10 15 1012.0 1011.9 0.0
30/01:00pm 33.6 32.5 17.7 38 10.2 E 20 30 11 16 1012.6 1012.5 0.0
30/12:30pm 33.0 33.0 19.8 45 8.7 E 19 28 10 15 1013.3 1013.2 0.0
30/12:00pm 32.4 32.8 20.6 49 7.9 E 19 32 10 17 1013.8 1013.7 0.0
30/11:30am 32.5 33.2 20.4 49 8.1 E 17 24 9 13 1014.3 1014.2 0.0
30/11:00am 30.9 31.6 20.5 54 6.9 ENE 17 24 9 13 1014.9 1014.8 0.0
30/10:30am 30.8 33.4 21.9 59 6.0 E 11 19 6 10 1015.3 1015.2 0.0
30/10:00am 29.8 33.2 23.3 68 4.5 ESE 11 17 6 9 1015.5 1015.4 0.0
30/09:30am 28.8 32.3 23.5 73 3.6 E 11 17 6 9 1015.7 1015.6 0.0
30/09:00am 27.6 32.1 24.0 81 2.5 ESE 7 11 4 6 1015.7 1015.6 0.0
30/08:30am 25.9 30.9 23.9 89 1.4 SSE 4 7 2 4 1015.5 1015.4 0.0
30/08:00am 24.4 29.5 24.1 98 0.2 SE 4 6 2 3 1015.1 1015.0 0.0
30/07:30am 22.9 28.0 22.7 99 0.1 CALM 0 0 0 0 1014.6 1014.5 0.0
30/07:00am 21.9 26.4 21.6 98 0.2 CALM 0 0 0 0 1014.2 1014.1 0.0
30/06:30am 22.4 27.2 22.2 99 0.1 CALM 0 0 0 0 1013.9 1013.8 0.0
30/06:00am 22.2 26.9 22.0 99 0.1 CALM 0 0 0 0 1013.7 1013.6 0.0
30/05:30am 22.2 26.9 21.9 98 0.2 CALM 0 0 0 0 1013.6 1013.5 0.0
30/05:00am 22.4 27.2 22.1 98 0.2 CALM 0 0 0 0 1013.5 1013.4 0.0
30/04:30am 22.7 27.6 22.4 98 0.2 CALM 0 0 0 0 1013.4 1013.3 0.0
30/04:00am 22.8 27.8 22.5 98 0.2 CALM 0 0 0 0 1013.4 1013.3 0.0
30/03:30am 22.6 27.5 22.3 98 0.2 CALM 0 0 0 0 1013.4 1013.3 0.0
30/03:00am 23.1 28.3 22.8 98 0.2 CALM 0 0 0 0 1013.5 1013.4 0.0
30/02:30am 23.5 28.9 23.2 98 0.2 CALM 0 0 0 0 1013.7 1013.6 0.0
30/02:00am 23.6 29.0 23.3 98 0.2 CALM 0 0 0 0 1013.8 1013.7 0.0
30/01:30am 24.9 29.8 23.7 93 0.8 ENE 4 4 2 2 1013.9 1013.8 0.0
30/01:00am 25.3 30.3 23.9 92 1.0 ENE 4 6 2 3 1014.1 1014.0 0.0
30/12:30am 25.4 30.0 23.8 91 1.1 ENE 6 7 3 4 1014.2 1014.1 0.0
30/12:00am 25.9 30.0 23.9 89 1.4 E 9 11 5 6 1014.4 1014.3 0.0
 
Date/Time
CST
Temp
°C
App
Temp
°C
Dew
Point
Rel
Hum
%
Delta-T
°C
Wind Press
QNH
hPa
Press
MSL
hPa
Rain
since 9 am
mm
Dir
 
Spd
km/h
Gust
km/h
Spd
kts
Gust
kts
29/11:30pm 26.0 30.5 23.9 88 1.4 E 7 11 4 6 1014.5 1014.4 0.0
29/11:00pm 26.1 30.5 23.8 87 1.6 E 7 11 4 6 1014.6 1014.5 0.0
29/10:30pm 26.2 30.0 23.5 85 1.8 E 9 13 5 7 1014.8 1014.7 0.0
29/10:00pm 26.4 30.1 23.3 83 2.1 E 9 13 5 7 1014.8 1014.7 0.0
29/09:30pm 26.5 30.2 23.2 82 2.2 E 9 15 5 8 1014.6 1014.5 0.0
29/09:00pm 26.7 30.3 23.0 80 2.5 E 9 13 5 7 1014.4 1014.3 0.0
29/08:30pm 27.1 30.6 22.9 78 2.9 E 9 15 5 8 1014.2 1014.1 0.0
29/08:00pm 27.4 30.5 22.8 76 3.1 E 11 17 6 9 1014.1 1014.0 0.0
29/07:30pm 28.0 30.3 22.7 73 3.6 E 15 20 8 11 1013.6 1013.5 0.0
29/07:00pm 28.6 30.4 22.6 70 4.1 E 17 26 9 14 1013.3 1013.2 0.0
29/06:30pm 29.5 30.8 21.7 63 5.2 E 17 24 9 13 1012.6 1012.5 0.0
29/06:00pm 30.6 31.5 19.3 51 7.4 ESE 13 20 7 11 1012.5 1012.4 0.0
29/05:30pm 31.9 31.6 17.4 42 9.3 E 15 22 8 12 1012.0 1011.9 0.0
29/05:00pm 32.8 32.6 16.6 38 10.2 E 13 20 7 11 1011.7 1011.6 0.0
29/04:30pm 33.1 31.7 16.5 37 10.5 E 19 24 10 13 1011.4 1011.3 0.0
29/04:00pm 33.5 33.1 17.2 37 10.4 E 15 22 8 12 1011.3 1011.2 0.0
29/03:30pm 32.5 32.3 17.5 40 9.6 ESE 15 26 8 14 1011.3 1011.2 0.0
29/03:00pm 33.6 33.6 18.9 41 9.6 E 17 24 9 13 1011.5 1011.4 0.0
29/02:30pm 31.3 31.3 19.0 48 8.0 SE 17 30 9 16 1011.9 1011.8 0.0
29/02:00pm 33.7 34.3 18.6 40 9.8 SE 13 24 7 13 1012.0 1011.9 0.0
29/01:30pm 33.1 33.9 18.1 41 9.7 SE 11 19 6 10 1012.4 1012.3 0.0
29/01:00pm 32.4 33.5 18.9 44 8.8 ESE 11 26 6 14 1012.8 1012.7 0.0
29/12:30pm 31.6 33.3 18.6 46 8.4 ESE 7 11 4 6 1013.4 1013.3 0.0
29/12:00pm 31.7 33.7 18.7 46 8.4 E 6 13 3 7 1014.0 1013.9 0.0
29/11:30am 32.0 34.5 19.9 48 8.0 E 6 13 3 7 1014.3 1014.2 0.0
29/11:00am 30.2 31.8 19.9 54 6.8 NNE 11 17 6 9 1014.7 1014.6 0.0
29/10:30am 30.3 32.4 20.2 54 6.7 NE 9 17 5 9 1014.9 1014.8 0.0
29/10:00am 29.5 32.2 21.4 61 5.4 NE 9 15 5 8 1015.1 1015.0 0.0
29/09:30am 29.5 32.5 22.7 67 4.6 NE 11 17 6 9 1015.0 1014.9 0.0
29/09:00am 28.8 32.9 23.2 71 3.8 NE 7 9 4 5 1014.8 1014.7 0.0
29/08:30am 27.1 31.2 23.3 80 2.6 NE 7 11 4 6 1014.6 1014.5 0.0
29/08:00am 25.0 29.9 23.6 92 1.0 E 4 6 2 3 1014.5 1014.4 0.0
29/07:30am 23.5 28.6 23.3 99 0.1 SSE 2 4 1 2 1014.5 1014.4 0.0
29/07:00am 22.0 25.9 21.8 99 0.1 SSE 4 4 2 2 1014.2 1014.1 0.0
29/06:30am 22.2 26.9 21.9 98 0.2 CALM 0 0 0 0 1013.7 1013.6 0.0
29/06:00am 22.0 26.6 21.7 98 0.2 CALM 0 0 0 0 1013.2 1013.1 0.0
29/05:30am 22.3 27.0 22.0 98 0.2 CALM 0 0 0 0 1013.1 1013.0 0.0
29/05:00am 22.5 27.3 22.2 98 0.2 CALM 0 0 0 0 1012.9 1012.8 0.0
29/04:30am 22.8 27.8 22.5 98 0.2 CALM 0 0 0 0 1012.8 1012.7 0.0
29/04:00am 22.9 28.0 22.6 98 0.2 CALM 0 0 0 0 1012.8 1012.7 0.0
29/03:30am 22.9 28.0 22.6 98 0.2 CALM 0 0 0 0 1013.0 1012.9 0.0
29/03:00am 23.3 28.6 23.0 98 0.2 CALM 0 0 0 0 1012.9 1012.8 0.0
29/02:30am 23.3 28.5 22.8 97 0.3 CALM 0 2 0 1 1012.9 1012.8 0.0
29/02:00am 23.4 27.9 22.2 93 0.8 ESE 2 4 1 2 1013.1 1013.0 0.0
29/01:30am 23.7 28.5 22.1 91 1.1 CALM 0 0 0 0 1013.3 1013.2 0.0
29/01:00am 24.2 28.5 21.9 87 1.5 SSE 2 2 1 1 1013.4 1013.3 0.0
29/12:30am 25.3 29.5 22.4 84 1.9 SE 4 7 2 4 1013.4 1013.3 0.0
29/12:00am 25.7 29.5 22.4 82 2.2 E 6 7 3 4 1013.4 1013.3 0.0

Other Formats:

Comma delimited format used in spreadsheet applications
http://www.bom.gov.au/fwo/IDD60801/IDD60801.94106.axf

JavaScript Object Notation format (JSON) in row-major order
http://www.bom.gov.au/fwo/IDD60801/IDD60801.94106.json